sensor_id;sensor_type;location;lat;lon;timestamp;temperature;humidity
14016;DHT22;7083;48.854;9.158;2023-04-25T00:01:15;8.00;99.90
14016;DHT22;7083;48.854;9.158;2023-04-25T00:03:42;8.00;99.90
14016;DHT22;7083;48.854;9.158;2023-04-25T00:06:08;7.90;99.90
14016;DHT22;7083;48.854;9.158;2023-04-25T00:08:35;7.80;99.90
14016;DHT22;7083;48.854;9.158;2023-04-25T00:11:04;7.80;99.90
14016;DHT22;7083;48.854;9.158;2023-04-25T00:13:31;7.80;99.90
14016;DHT22;7083;48.854;9.158;2023-04-25T00:15:58;7.70;99.90
14016;DHT22;7083;48.854;9.158;2023-04-25T00:18:25;7.70;99.90
14016;DHT22;7083;48.854;9.158;2023-04-25T00:20:54;7.70;99.90
14016;DHT22;7083;48.854;9.158;2023-04-25T00:23:21;7.70;99.90
14016;DHT22;7083;48.854;9.158;2023-04-25T00:25:49;7.60;99.90
14016;DHT22;7083;48.854;9.158;2023-04-25T00:28:17;7.60;99.90
14016;DHT22;7083;48.854;9.158;2023-04-25T00:30:44;7.60;99.90
14016;DHT22;7083;48.854;9.158;2023-04-25T00:33:11;7.60;99.90
14016;DHT22;7083;48.854;9.158;2023-04-25T00:35:38;7.60;99.90
14016;DHT22;7083;48.854;9.158;2023-04-25T00:38:04;7.60;99.90
14016;DHT22;7083;48.854;9.158;2023-04-25T00:40:31;7.60;99.90
14016;DHT22;7083;48.854;9.158;2023-04-25T00:42:58;7.60;99.90
14016;DHT22;7083;48.854;9.158;2023-04-25T00:45:28;7.60;99.90
14016;DHT22;7083;48.854;9.158;2023-04-25T00:47:56;7.50;99.90
14016;DHT22;7083;48.854;9.158;2023-04-25T00:50:23;7.50;99.90
14016;DHT22;7083;48.854;9.158;2023-04-25T00:52:50;7.50;99.90
14016;DHT22;7083;48.854;9.158;2023-04-25T00:55:17;7.50;99.90
14016;DHT22;7083;48.854;9.158;2023-04-25T00:57:44;7.50;99.90
14016;DHT22;7083;48.854;9.158;2023-04-25T01:00:11;7.50;99.90
14016;DHT22;7083;48.854;9.158;2023-04-25T01:02:40;7.40;99.90
14016;DHT22;7083;48.854;9.158;2023-04-25T01:05:08;7.40;99.90
14016;DHT22;7083;48.854;9.158;2023-04-25T01:07:35;7.40;99.90
14016;DHT22;7083;48.854;9.158;2023-04-25T01:10:02;7.40;99.90
14016;DHT22;7083;48.854;9.158;2023-04-25T01:12:29;7.40;99.90
14016;DHT22;7083;48.854;9.158;2023-04-25T01:14:56;7.40;99.90
14016;DHT22;7083;48.854;9.158;2023-04-25T01:17:23;7.40;99.90
14016;DHT22;7083;48.854;9.158;2023-04-25T01:19:51;7.40;99.90
14016;DHT22;7083;48.854;9.158;2023-04-25T01:22:19;7.40;99.90
14016;DHT22;7083;48.854;9.158;2023-04-25T01:24:46;7.50;99.90
14016;DHT22;7083;48.854;9.158;2023-04-25T01:27:13;7.50;99.90
14016;DHT22;7083;48.854;9.158;2023-04-25T01:29:40;7.40;99.90
14016;DHT22;7083;48.854;9.158;2023-04-25T01:32:07;7.40;99.90
14016;DHT22;7083;48.854;9.158;2023-04-25T01:34:35;7.40;99.90
14016;DHT22;7083;48.854;9.158;2023-04-25T01:37:01;7.30;99.90
14016;DHT22;7083;48.854;9.158;2023-04-25T01:39:29;7.30;99.90
14016;DHT22;7083;48.854;9.158;2023-04-25T01:41:56;7.30;99.90
14016;DHT22;7083;48.854;9.158;2023-04-25T01:44:23;7.30;99.90
14016;DHT22;7083;48.854;9.158;2023-04-25T01:46:50;7.30;99.90
14016;DHT22;7083;48.854;9.158;2023-04-25T01:49:17;7.30;99.90
14016;DHT22;7083;48.854;9.158;2023-04-25T01:51:44;7.30;99.90
14016;DHT22;7083;48.854;9.158;2023-04-25T01:54:11;7.30;99.90
14016;DHT22;7083;48.854;9.158;2023-04-25T01:56:39;7.30;99.90
14016;DHT22;7083;48.854;9.158;2023-04-25T01:59:06;7.40;99.90
14016;DHT22;7083;48.854;9.158;2023-04-25T02:01:33;7.40;99.90
14016;DHT22;7083;48.854;9.158;2023-04-25T02:03:59;7.40;99.90
14016;DHT22;7083;48.854;9.158;2023-04-25T02:06:26;7.50;99.90
14016;DHT22;7083;48.854;9.158;2023-04-25T02:08:53;7.50;99.90
14016;DHT22;7083;48.854;9.158;2023-04-25T02:11:19;7.60;99.90
14016;DHT22;7083;48.854;9.158;2023-04-25T02:13:47;7.60;99.90
14016;DHT22;7083;48.854;9.158;2023-04-25T02:16:14;7.60;99.90
14016;DHT22;7083;48.854;9.158;2023-04-25T02:18:41;7.70;99.90
14016;DHT22;7083;48.854;9.158;2023-04-25T02:21:07;7.70;99.90
14016;DHT22;7083;48.854;9.158;2023-04-25T02:23:34;7.70;99.90
14016;DHT22;7083;48.854;9.158;2023-04-25T02:26:01;7.60;99.90
14016;DHT22;7083;48.854;9.158;2023-04-25T02:28:27;7.50;99.90
14016;DHT22;7083;48.854;9.158;2023-04-25T02:30:55;7.40;99.90
14016;DHT22;7083;48.854;9.158;2023-04-25T02:33:22;7.30;99.90
14016;DHT22;7083;48.854;9.158;2023-04-25T02:35:49;7.20;99.90
14016;DHT22;7083;48.854;9.158;2023-04-25T02:38:15;7.20;99.90
14016;DHT22;7083;48.854;9.158;2023-04-25T02:40:42;7.10;99.90
14016;DHT22;7083;48.854;9.158;2023-04-25T02:43:09;7.10;99.90
14016;DHT22;7083;48.854;9.158;2023-04-25T02:45:36;7.10;99.90
14016;DHT22;7083;48.854;9.158;2023-04-25T02:48:05;7.10;99.90
14016;DHT22;7083;48.854;9.158;2023-04-25T02:50:31;7.10;99.90
14016;DHT22;7083;48.854;9.158;2023-04-25T02:52:58;7.10;99.90
14016;DHT22;7083;48.854;9.158;2023-04-25T02:55:25;7.00;99.90
14016;DHT22;7083;48.854;9.158;2023-04-25T02:57:52;7.00;99.90
14016;DHT22;7083;48.854;9.158;2023-04-25T03:00:20;7.00;99.90
14016;DHT22;7083;48.854;9.158;2023-04-25T03:02:47;7.00;99.90
14016;DHT22;7083;48.854;9.158;2023-04-25T03:05:15;7.10;99.90
14016;DHT22;7083;48.854;9.158;2023-04-25T03:07:44;7.10;99.90
14016;DHT22;7083;48.854;9.158;2023-04-25T03:10:11;7.10;99.90
14016;DHT22;7083;48.854;9.158;2023-04-25T03:12:38;7.10;99.90
14016;DHT22;7083;48.854;9.158;2023-04-25T03:15:06;7.10;99.90
14016;DHT22;7083;48.854;9.158;2023-04-25T03:17:35;7.10;99.90
14016;DHT22;7083;48.854;9.158;2023-04-25T03:20:02;7.10;99.90
14016;DHT22;7083;48.854;9.158;2023-04-25T03:22:32;7.00;99.90
14016;DHT22;7083;48.854;9.158;2023-04-25T03:24:58;7.00;99.90
14016;DHT22;7083;48.854;9.158;2023-04-25T03:27:25;6.90;99.90
14016;DHT22;7083;48.854;9.158;2023-04-25T03:29:52;6.90;99.90
14016;DHT22;7083;48.854;9.158;2023-04-25T03:32:19;6.90;99.90
14016;DHT22;7083;48.854;9.158;2023-04-25T03:34:47;6.90;99.90
14016;DHT22;7083;48.854;9.158;2023-04-25T03:37:14;6.90;99.90
14016;DHT22;7083;48.854;9.158;2023-04-25T03:39:42;7.00;99.90
14016;DHT22;7083;48.854;9.158;2023-04-25T03:42:09;7.00;99.90
14016;DHT22;7083;48.854;9.158;2023-04-25T03:44:36;7.00;99.90
14016;DHT22;7083;48.854;9.158;2023-04-25T03:47:05;7.00;99.90
14016;DHT22;7083;48.854;9.158;2023-04-25T03:49:34;7.00;99.90
14016;DHT22;7083;48.854;9.158;2023-04-25T03:52:01;7.10;99.90
14016;DHT22;7083;48.854;9.158;2023-04-25T03:54:28;7.10;99.90
14016;DHT22;7083;48.854;9.158;2023-04-25T03:56:56;7.10;99.90
14016;DHT22;7083;48.854;9.158;2023-04-25T03:59:23;7.10;99.90
14016;DHT22;7083;48.854;9.158;2023-04-25T04:01:50;6.90;99.90
14016;DHT22;7083;48.854;9.158;2023-04-25T04:04:17;6.90;99.90
14016;DHT22;7083;48.854;9.158;2023-04-25T04:06:43;6.90;99.90
14016;DHT22;7083;48.854;9.158;2023-04-25T04:09:11;7.00;99.90
14016;DHT22;7083;48.854;9.158;2023-04-25T04:11:38;6.90;99.90
14016;DHT22;7083;48.854;9.158;2023-04-25T04:14:08;6.90;99.90
14016;DHT22;7083;48.854;9.158;2023-04-25T04:16:36;7.00;99.90
14016;DHT22;7083;48.854;9.158;2023-04-25T04:19:03;7.00;99.90
14016;DHT22;7083;48.854;9.158;2023-04-25T04:21:29;7.10;99.90
14016;DHT22;7083;48.854;9.158;2023-04-25T04:23:57;7.10;99.90
14016;DHT22;7083;48.854;9.158;2023-04-25T04:26:25;7.10;99.90
14016;DHT22;7083;48.854;9.158;2023-04-25T04:28:53;7.10;99.90
14016;DHT22;7083;48.854;9.158;2023-04-25T04:31:22;7.10;99.90
14016;DHT22;7083;48.854;9.158;2023-04-25T04:33:49;7.10;99.90
14016;DHT22;7083;48.854;9.158;2023-04-25T04:36:16;7.10;99.90
14016;DHT22;7083;48.854;9.158;2023-04-25T04:38:45;7.10;99.90
14016;DHT22;7083;48.854;9.158;2023-04-25T04:41:12;7.10;99.90
14016;DHT22;7083;48.854;9.158;2023-04-25T04:43:38;7.20;99.90
14016;DHT22;7083;48.854;9.158;2023-04-25T04:46:05;7.20;99.90
14016;DHT22;7083;48.854;9.158;2023-04-25T04:48:34;7.20;99.90
14016;DHT22;7083;48.854;9.158;2023-04-25T04:51:01;7.60;99.90
14016;DHT22;7083;48.854;9.158;2023-04-25T04:53:27;7.30;99.90
14016;DHT22;7083;48.854;9.158;2023-04-25T04:55:54;7.30;99.90
14016;DHT22;7083;48.854;9.158;2023-04-25T04:58:21;7.40;99.90
14016;DHT22;7083;48.854;9.158;2023-04-25T05:00:57;7.40;99.90
14016;DHT22;7083;48.854;9.158;2023-04-25T05:03:28;7.40;99.90
14016;DHT22;7083;48.854;9.158;2023-04-25T05:05:56;7.50;99.90
14016;DHT22;7083;48.854;9.158;2023-04-25T05:08:22;7.50;99.90
14016;DHT22;7083;48.854;9.158;2023-04-25T05:10:49;7.60;99.90
14016;DHT22;7083;48.854;9.158;2023-04-25T05:13:16;7.70;99.90
14016;DHT22;7083;48.854;9.158;2023-04-25T05:15:43;7.70;99.90
14016;DHT22;7083;48.854;9.158;2023-04-25T05:18:09;7.80;99.90
14016;DHT22;7083;48.854;9.158;2023-04-25T05:20:36;7.90;99.90
14016;DHT22;7083;48.854;9.158;2023-04-25T05:23:04;7.90;99.90
14016;DHT22;7083;48.854;9.158;2023-04-25T05:25:31;8.00;99.90
14016;DHT22;7083;48.854;9.158;2023-04-25T05:27:58;8.00;99.90
14016;DHT22;7083;48.854;9.158;2023-04-25T05:30:25;8.00;99.90
14016;DHT22;7083;48.854;9.158;2023-04-25T05:32:52;8.00;99.90
14016;DHT22;7083;48.854;9.158;2023-04-25T05:35:18;8.00;99.90
14016;DHT22;7083;48.854;9.158;2023-04-25T05:37:45;8.00;99.90
14016;DHT22;7083;48.854;9.158;2023-04-25T05:40:13;7.90;99.90
14016;DHT22;7083;48.854;9.158;2023-04-25T05:42:40;7.90;99.90
14016;DHT22;7083;48.854;9.158;2023-04-25T05:45:07;7.80;99.90
14016;DHT22;7083;48.854;9.158;2023-04-25T05:47:44;7.80;99.90
14016;DHT22;7083;48.854;9.158;2023-04-25T05:50:20;7.80;99.90
14016;DHT22;7083;48.854;9.158;2023-04-25T05:52:46;7.80;99.90
14016;DHT22;7083;48.854;9.158;2023-04-25T05:55:15;7.70;99.90
14016;DHT22;7083;48.854;9.158;2023-04-25T05:57:41;7.70;99.90
14016;DHT22;7083;48.854;9.158;2023-04-25T06:00:12;7.70;99.90
14016;DHT22;7083;48.854;9.158;2023-04-25T06:02:40;7.60;99.90
14016;DHT22;7083;48.854;9.158;2023-04-25T06:05:08;7.60;99.90
14016;DHT22;7083;48.854;9.158;2023-04-25T06:07:34;7.70;99.90
14016;DHT22;7083;48.854;9.158;2023-04-25T06:10:01;7.70;99.90
14016;DHT22;7083;48.854;9.158;2023-04-25T06:12:30;7.80;99.90
14016;DHT22;7083;48.854;9.158;2023-04-25T06:14:57;7.80;99.90
14016;DHT22;7083;48.854;9.158;2023-04-25T06:17:23;7.90;99.90
14016;DHT22;7083;48.854;9.158;2023-04-25T06:19:50;8.00;99.90
14016;DHT22;7083;48.854;9.158;2023-04-25T06:22:17;8.10;99.90
14016;DHT22;7083;48.854;9.158;2023-04-25T06:24:43;8.30;99.90
14016;DHT22;7083;48.854;9.158;2023-04-25T06:27:11;8.30;99.90
14016;DHT22;7083;48.854;9.158;2023-04-25T06:29:39;8.40;99.90
14016;DHT22;7083;48.854;9.158;2023-04-25T06:32:06;8.50;99.90
14016;DHT22;7083;48.854;9.158;2023-04-25T06:34:32;8.60;99.90
14016;DHT22;7083;48.854;9.158;2023-04-25T06:36:59;8.70;99.90
14016;DHT22;7083;48.854;9.158;2023-04-25T06:39:26;8.80;99.90
14016;DHT22;7083;48.854;9.158;2023-04-25T06:41:52;9.00;99.90
14016;DHT22;7083;48.854;9.158;2023-04-25T06:44:19;10.10;99.90
14016;DHT22;7083;48.854;9.158;2023-04-25T06:46:47;9.20;99.90
14016;DHT22;7083;48.854;9.158;2023-04-25T06:49:14;9.30;99.90
14016;DHT22;7083;48.854;9.158;2023-04-25T06:51:42;9.40;99.90
14016;DHT22;7083;48.854;9.158;2023-04-25T06:54:09;9.50;99.90
14016;DHT22;7083;48.854;9.158;2023-04-25T06:56:35;9.60;99.90
14016;DHT22;7083;48.854;9.158;2023-04-25T06:59:02;9.60;99.90
14016;DHT22;7083;48.854;9.158;2023-04-25T07:01:29;9.60;99.90
14016;DHT22;7083;48.854;9.158;2023-04-25T07:03:57;9.40;99.90
14016;DHT22;7083;48.854;9.158;2023-04-25T07:06:23;9.40;99.90
14016;DHT22;7083;48.854;9.158;2023-04-25T07:08:51;9.40;99.90
14016;DHT22;7083;48.854;9.158;2023-04-25T07:11:17;9.30;99.90
14016;DHT22;7083;48.854;9.158;2023-04-25T07:13:44;9.30;99.90
14016;DHT22;7083;48.854;9.158;2023-04-25T07:16:11;9.30;99.90
14016;DHT22;7083;48.854;9.158;2023-04-25T07:18:37;9.30;99.90
14016;DHT22;7083;48.854;9.158;2023-04-25T07:21:06;9.30;99.90
14016;DHT22;7083;48.854;9.158;2023-04-25T07:23:32;9.30;99.90
14016;DHT22;7083;48.854;9.158;2023-04-25T07:25:59;9.30;99.90
14016;DHT22;7083;48.854;9.158;2023-04-25T07:28:26;9.30;99.90
14016;DHT22;7083;48.854;9.158;2023-04-25T07:30:52;9.30;99.90
14016;DHT22;7083;48.854;9.158;2023-04-25T07:33:19;9.30;99.90
14016;DHT22;7083;48.854;9.158;2023-04-25T07:35:46;9.20;99.90
14016;DHT22;7083;48.854;9.158;2023-04-25T07:38:14;9.20;99.90
14016;DHT22;7083;48.854;9.158;2023-04-25T07:40:41;9.10;99.90
14016;DHT22;7083;48.854;9.158;2023-04-25T07:43:08;9.10;99.90
14016;DHT22;7083;48.854;9.158;2023-04-25T07:45:37;9.50;99.90
14016;DHT22;7083;48.854;9.158;2023-04-25T07:48:04;8.90;99.90
14016;DHT22;7083;48.854;9.158;2023-04-25T07:50:31;8.80;99.90
14016;DHT22;7083;48.854;9.158;2023-04-25T07:52:57;8.80;99.90
14016;DHT22;7083;48.854;9.158;2023-04-25T07:55:25;8.70;99.90
14016;DHT22;7083;48.854;9.158;2023-04-25T07:57:52;8.70;99.90
14016;DHT22;7083;48.854;9.158;2023-04-25T08:00:19;8.80;99.90
14016;DHT22;7083;48.854;9.158;2023-04-25T08:02:46;9.00;99.90
14016;DHT22;7083;48.854;9.158;2023-04-25T08:05:13;9.00;99.90
14016;DHT22;7083;48.854;9.158;2023-04-25T08:07:41;9.10;99.90
14016;DHT22;7083;48.854;9.158;2023-04-25T08:10:09;9.10;99.90
14016;DHT22;7083;48.854;9.158;2023-04-25T08:12:37;9.10;99.90
14016;DHT22;7083;48.854;9.158;2023-04-25T08:15:05;9.00;99.90
14016;DHT22;7083;48.854;9.158;2023-04-25T08:17:32;9.00;99.90
14016;DHT22;7083;48.854;9.158;2023-04-25T08:19:59;8.90;99.90
14016;DHT22;7083;48.854;9.158;2023-04-25T08:22:25;8.90;99.90
14016;DHT22;7083;48.854;9.158;2023-04-25T08:24:52;8.80;99.90
14016;DHT22;7083;48.854;9.158;2023-04-25T08:27:19;8.80;99.90
14016;DHT22;7083;48.854;9.158;2023-04-25T08:29:48;8.80;99.90
14016;DHT22;7083;48.854;9.158;2023-04-25T08:32:15;8.80;99.90
14016;DHT22;7083;48.854;9.158;2023-04-25T08:34:42;8.80;99.90
14016;DHT22;7083;48.854;9.158;2023-04-25T08:37:09;8.70;99.90
14016;DHT22;7083;48.854;9.158;2023-04-25T08:39:36;8.60;99.90
14016;DHT22;7083;48.854;9.158;2023-04-25T08:42:05;8.60;99.90
14016;DHT22;7083;48.854;9.158;2023-04-25T08:44:33;9.70;99.90
14016;DHT22;7083;48.854;9.158;2023-04-25T08:47:02;8.20;99.90
14016;DHT22;7083;48.854;9.158;2023-04-25T08:49:29;8.10;99.90
14016;DHT22;7083;48.854;9.158;2023-04-25T08:51:59;8.00;99.90
14016;DHT22;7083;48.854;9.158;2023-04-25T08:54:27;7.90;99.90
14016;DHT22;7083;48.854;9.158;2023-04-25T08:56:56;7.80;99.90
14016;DHT22;7083;48.854;9.158;2023-04-25T08:59:23;7.80;99.90
14016;DHT22;7083;48.854;9.158;2023-04-25T09:01:50;7.70;99.90
14016;DHT22;7083;48.854;9.158;2023-04-25T09:04:18;7.70;99.90
14016;DHT22;7083;48.854;9.158;2023-04-25T09:06:45;7.70;99.90
14016;DHT22;7083;48.854;9.158;2023-04-25T09:09:12;7.70;99.90
14016;DHT22;7083;48.854;9.158;2023-04-25T09:11:39;7.60;99.90
14016;DHT22;7083;48.854;9.158;2023-04-25T09:14:14;7.70;99.90
14016;DHT22;7083;48.854;9.158;2023-04-25T09:16:58;7.70;99.90
14016;DHT22;7083;48.854;9.158;2023-04-25T09:19:28;7.70;99.90
14016;DHT22;7083;48.854;9.158;2023-04-25T09:21:56;7.70;99.90
14016;DHT22;7083;48.854;9.158;2023-04-25T09:24:34;7.70;99.90
14016;DHT22;7083;48.854;9.158;2023-04-25T09:27:03;7.60;99.90
14016;DHT22;7083;48.854;9.158;2023-04-25T09:29:31;7.50;99.90
14016;DHT22;7083;48.854;9.158;2023-04-25T09:32:19;7.40;99.90
14016;DHT22;7083;48.854;9.158;2023-04-25T09:34:49;7.30;99.90
14016;DHT22;7083;48.854;9.158;2023-04-25T09:37:20;7.30;99.90
14016;DHT22;7083;48.854;9.158;2023-04-25T09:39:48;7.30;99.90
14016;DHT22;7083;48.854;9.158;2023-04-25T09:42:16;7.40;99.90
14016;DHT22;7083;48.854;9.158;2023-04-25T09:44:44;7.40;99.90
14016;DHT22;7083;48.854;9.158;2023-04-25T09:47:12;7.40;99.90
14016;DHT22;7083;48.854;9.158;2023-04-25T09:49:40;7.40;99.90
14016;DHT22;7083;48.854;9.158;2023-04-25T09:52:14;7.40;99.90
14016;DHT22;7083;48.854;9.158;2023-04-25T09:54:41;7.40;99.90
14016;DHT22;7083;48.854;9.158;2023-04-25T09:57:11;7.40;99.90
14016;DHT22;7083;48.854;9.158;2023-04-25T09:59:39;7.30;99.90
14016;DHT22;7083;48.854;9.158;2023-04-25T10:02:09;7.30;99.90
14016;DHT22;7083;48.854;9.158;2023-04-25T10:04:37;7.20;99.90
14016;DHT22;7083;48.854;9.158;2023-04-25T10:07:06;7.10;99.90
14016;DHT22;7083;48.854;9.158;2023-04-25T10:09:36;7.10;99.90
14016;DHT22;7083;48.854;9.158;2023-04-25T10:12:05;7.00;99.90
14016;DHT22;7083;48.854;9.158;2023-04-25T10:14:33;6.90;99.90
14016;DHT22;7083;48.854;9.158;2023-04-25T10:17:00;6.90;99.90
14016;DHT22;7083;48.854;9.158;2023-04-25T10:19:27;6.80;99.90
14016;DHT22;7083;48.854;9.158;2023-04-25T10:22:01;6.80;99.90
14016;DHT22;7083;48.854;9.158;2023-04-25T10:24:29;6.70;99.90
14016;DHT22;7083;48.854;9.158;2023-04-25T10:26:57;6.60;99.90
14016;DHT22;7083;48.854;9.158;2023-04-25T10:29:26;6.50;99.90
14016;DHT22;7083;48.854;9.158;2023-04-25T10:31:52;6.50;99.90
14016;DHT22;7083;48.854;9.158;2023-04-25T10:34:19;6.50;99.90
14016;DHT22;7083;48.854;9.158;2023-04-25T10:36:51;6.50;99.90
14016;DHT22;7083;48.854;9.158;2023-04-25T10:39:22;6.50;99.90
14016;DHT22;7083;48.854;9.158;2023-04-25T10:41:55;6.60;99.90
14016;DHT22;7083;48.854;9.158;2023-04-25T10:44:26;6.50;99.90
14016;DHT22;7083;48.854;9.158;2023-04-25T10:46:55;6.60;99.90
14016;DHT22;7083;48.854;9.158;2023-04-25T10:49:29;6.60;99.90
14016;DHT22;7083;48.854;9.158;2023-04-25T10:52:24;6.60;99.90
14016;DHT22;7083;48.854;9.158;2023-04-25T10:54:52;6.60;99.90
14016;DHT22;7083;48.854;9.158;2023-04-25T10:57:36;6.60;99.90
14016;DHT22;7083;48.854;9.158;2023-04-25T11:00:10;6.70;99.90
14016;DHT22;7083;48.854;9.158;2023-04-25T11:02:38;6.80;99.90
14016;DHT22;7083;48.854;9.158;2023-04-25T11:05:07;6.90;99.90
14016;DHT22;7083;48.854;9.158;2023-04-25T11:07:38;7.00;99.90
14016;DHT22;7083;48.854;9.158;2023-04-25T11:10:07;7.10;99.90
14016;DHT22;7083;48.854;9.158;2023-04-25T11:12:34;7.20;99.90
14016;DHT22;7083;48.854;9.158;2023-04-25T11:15:02;7.40;99.90
14016;DHT22;7083;48.854;9.158;2023-04-25T11:17:30;7.60;99.90
14016;DHT22;7083;48.854;9.158;2023-04-25T11:19:57;7.70;99.90
14016;DHT22;7083;48.854;9.158;2023-04-25T11:22:24;7.80;99.90
14016;DHT22;7083;48.854;9.158;2023-04-25T11:24:51;7.80;99.90
14016;DHT22;7083;48.854;9.158;2023-04-25T11:27:18;7.80;99.90
14016;DHT22;7083;48.854;9.158;2023-04-25T11:29:44;7.80;99.90
14016;DHT22;7083;48.854;9.158;2023-04-25T11:32:14;7.80;99.90
14016;DHT22;7083;48.854;9.158;2023-04-25T11:34:43;7.80;99.90
14016;DHT22;7083;48.854;9.158;2023-04-25T11:37:11;7.80;99.90
14016;DHT22;7083;48.854;9.158;2023-04-25T11:39:42;7.80;99.90
14016;DHT22;7083;48.854;9.158;2023-04-25T11:42:09;7.80;99.90
14016;DHT22;7083;48.854;9.158;2023-04-25T11:44:37;7.80;99.90
14016;DHT22;7083;48.854;9.158;2023-04-25T11:47:04;7.90;99.90
14016;DHT22;7083;48.854;9.158;2023-04-25T11:49:31;8.00;99.90
14016;DHT22;7083;48.854;9.158;2023-04-25T11:51:59;8.10;99.90
14016;DHT22;7083;48.854;9.158;2023-04-25T11:54:26;8.10;99.90
14016;DHT22;7083;48.854;9.158;2023-04-25T11:56:53;8.20;99.90
14016;DHT22;7083;48.854;9.158;2023-04-25T11:59:23;8.20;99.90
14016;DHT22;7083;48.854;9.158;2023-04-25T12:01:50;8.10;99.90
14016;DHT22;7083;48.854;9.158;2023-04-25T12:04:18;8.00;99.90
14016;DHT22;7083;48.854;9.158;2023-04-25T12:06:46;8.10;99.90
14016;DHT22;7083;48.854;9.158;2023-04-25T12:09:17;8.10;99.90
14016;DHT22;7083;48.854;9.158;2023-04-25T12:11:45;8.00;99.90
14016;DHT22;7083;48.854;9.158;2023-04-25T12:14:12;8.00;99.90
14016;DHT22;7083;48.854;9.158;2023-04-25T12:16:43;7.80;99.90
14016;DHT22;7083;48.854;9.158;2023-04-25T12:19:13;7.70;99.90
14016;DHT22;7083;48.854;9.158;2023-04-25T12:21:39;7.70;99.90
14016;DHT22;7083;48.854;9.158;2023-04-25T12:24:10;7.70;99.90
14016;DHT22;7083;48.854;9.158;2023-04-25T12:26:52;7.80;99.90
14016;DHT22;7083;48.854;9.158;2023-04-25T12:29:21;8.00;99.90
14016;DHT22;7083;48.854;9.158;2023-04-25T12:31:48;8.20;99.90
14016;DHT22;7083;48.854;9.158;2023-04-25T12:34:15;8.60;99.90
14016;DHT22;7083;48.854;9.158;2023-04-25T12:36:41;8.90;99.90
14016;DHT22;7083;48.854;9.158;2023-04-25T12:39:08;9.40;99.90
14016;DHT22;7083;48.854;9.158;2023-04-25T12:41:40;9.80;99.90
14016;DHT22;7083;48.854;9.158;2023-04-25T12:44:08;10.30;99.90
14016;DHT22;7083;48.854;9.158;2023-04-25T12:46:35;10.50;99.90
14016;DHT22;7083;48.854;9.158;2023-04-25T12:49:03;10.60;99.90
14016;DHT22;7083;48.854;9.158;2023-04-25T12:51:30;10.80;99.90
14016;DHT22;7083;48.854;9.158;2023-04-25T12:53:58;11.10;99.90
14016;DHT22;7083;48.854;9.158;2023-04-25T12:56:25;11.30;99.90
14016;DHT22;7083;48.854;9.158;2023-04-25T12:58:52;11.20;99.90
14016;DHT22;7083;48.854;9.158;2023-04-25T13:01:20;11.00;99.90
14016;DHT22;7083;48.854;9.158;2023-04-25T13:03:47;10.80;99.90
14016;DHT22;7083;48.854;9.158;2023-04-25T13:06:14;10.60;99.90
14016;DHT22;7083;48.854;9.158;2023-04-25T13:08:41;10.40;99.90
14016;DHT22;7083;48.854;9.158;2023-04-25T13:11:08;10.30;99.90
14016;DHT22;7083;48.854;9.158;2023-04-25T13:13:35;10.30;99.90
14016;DHT22;7083;48.854;9.158;2023-04-25T13:16:02;10.30;99.90
14016;DHT22;7083;48.854;9.158;2023-04-25T13:18:31;10.20;99.90
14016;DHT22;7083;48.854;9.158;2023-04-25T13:20:58;10.10;99.90
14016;DHT22;7083;48.854;9.158;2023-04-25T13:23:25;10.10;99.90
14016;DHT22;7083;48.854;9.158;2023-04-25T13:25:53;9.90;99.90
14016;DHT22;7083;48.854;9.158;2023-04-25T13:28:20;9.70;99.90
14016;DHT22;7083;48.854;9.158;2023-04-25T13:30:47;9.50;99.90
14016;DHT22;7083;48.854;9.158;2023-04-25T13:33:14;9.50;99.90
14016;DHT22;7083;48.854;9.158;2023-04-25T13:35:43;9.40;99.90
14016;DHT22;7083;48.854;9.158;2023-04-25T13:38:12;9.40;99.90
14016;DHT22;7083;48.854;9.158;2023-04-25T13:40:39;9.50;99.90
14016;DHT22;7083;48.854;9.158;2023-04-25T13:43:05;9.60;99.90
14016;DHT22;7083;48.854;9.158;2023-04-25T13:45:32;9.90;99.90
14016;DHT22;7083;48.854;9.158;2023-04-25T13:47:59;10.10;99.90
14016;DHT22;7083;48.854;9.158;2023-04-25T13:50:26;10.20;99.90
14016;DHT22;7083;48.854;9.158;2023-04-25T13:52:53;10.30;99.90
14016;DHT22;7083;48.854;9.158;2023-04-25T13:55:20;10.80;99.90
14016;DHT22;7083;48.854;9.158;2023-04-25T13:57:47;11.60;99.90
14016;DHT22;7083;48.854;9.158;2023-04-25T14:00:14;12.10;99.90
14016;DHT22;7083;48.854;9.158;2023-04-25T14:02:41;11.90;99.90
14016;DHT22;7083;48.854;9.158;2023-04-25T14:05:08;11.90;99.90
14016;DHT22;7083;48.854;9.158;2023-04-25T14:07:35;11.70;99.90
14016;DHT22;7083;48.854;9.158;2023-04-25T14:10:04;11.60;99.90
14016;DHT22;7083;48.854;9.158;2023-04-25T14:12:31;11.50;99.90
14016;DHT22;7083;48.854;9.158;2023-04-25T14:14:58;11.50;99.90
14016;DHT22;7083;48.854;9.158;2023-04-25T14:17:25;11.80;99.90
14016;DHT22;7083;48.854;9.158;2023-04-25T14:19:52;12.40;99.90
14016;DHT22;7083;48.854;9.158;2023-04-25T14:22:18;12.60;99.90
14016;DHT22;7083;48.854;9.158;2023-04-25T14:24:45;12.60;99.90
14016;DHT22;7083;48.854;9.158;2023-04-25T14:27:13;12.80;99.90
14016;DHT22;7083;48.854;9.158;2023-04-25T14:29:40;12.80;99.90
14016;DHT22;7083;48.854;9.158;2023-04-25T14:32:06;12.90;99.90
14016;DHT22;7083;48.854;9.158;2023-04-25T14:34:33;13.00;99.90
14016;DHT22;7083;48.854;9.158;2023-04-25T14:37:00;12.60;99.90
14016;DHT22;7083;48.854;9.158;2023-04-25T14:39:27;12.30;99.90
14016;DHT22;7083;48.854;9.158;2023-04-25T14:41:53;12.20;99.90
14016;DHT22;7083;48.854;9.158;2023-04-25T14:44:22;12.10;99.90
14016;DHT22;7083;48.854;9.158;2023-04-25T14:46:49;11.90;99.90
14016;DHT22;7083;48.854;9.158;2023-04-25T14:49:17;12.40;99.90
14016;DHT22;7083;48.854;9.158;2023-04-25T14:51:44;13.20;99.90
14016;DHT22;7083;48.854;9.158;2023-04-25T14:54:10;14.00;99.90
14016;DHT22;7083;48.854;9.158;2023-04-25T14:56:37;14.40;99.90
14016;DHT22;7083;48.854;9.158;2023-04-25T14:59:04;14.20;99.90
14016;DHT22;7083;48.854;9.158;2023-04-25T15:01:32;13.60;99.90
14016;DHT22;7083;48.854;9.158;2023-04-25T15:03:59;12.70;99.90
14016;DHT22;7083;48.854;9.158;2023-04-25T15:06:25;12.40;99.90
14016;DHT22;7083;48.854;9.158;2023-04-25T15:08:54;12.00;99.90
14016;DHT22;7083;48.854;9.158;2023-04-25T15:11:21;11.60;99.90
14016;DHT22;7083;48.854;9.158;2023-04-25T15:13:47;11.80;99.90
14016;DHT22;7083;48.854;9.158;2023-04-25T15:16:14;12.20;99.90
14016;DHT22;7083;48.854;9.158;2023-04-25T15:18:42;13.00;99.90
14016;DHT22;7083;48.854;9.158;2023-04-25T15:21:09;12.90;99.90
14016;DHT22;7083;48.854;9.158;2023-04-25T15:23:36;12.50;99.90
14016;DHT22;7083;48.854;9.158;2023-04-25T15:26:03;12.20;99.90
14016;DHT22;7083;48.854;9.158;2023-04-25T15:28:30;11.80;99.90
14016;DHT22;7083;48.854;9.158;2023-04-25T15:30:56;11.40;99.90
14016;DHT22;7083;48.854;9.158;2023-04-25T15:33:23;11.20;99.90
14016;DHT22;7083;48.854;9.158;2023-04-25T15:35:52;11.20;99.90
14016;DHT22;7083;48.854;9.158;2023-04-25T15:38:18;11.20;99.90
14016;DHT22;7083;48.854;9.158;2023-04-25T15:40:45;11.20;99.90
14016;DHT22;7083;48.854;9.158;2023-04-25T15:43:12;10.90;99.90
14016;DHT22;7083;48.854;9.158;2023-04-25T15:45:40;10.50;99.90
14016;DHT22;7083;48.854;9.158;2023-04-25T15:48:07;10.50;99.90
14016;DHT22;7083;48.854;9.158;2023-04-25T15:50:33;10.50;99.90
14016;DHT22;7083;48.854;9.158;2023-04-25T15:53:03;10.60;99.90
14016;DHT22;7083;48.854;9.158;2023-04-25T15:55:29;10.70;99.90
14016;DHT22;7083;48.854;9.158;2023-04-25T15:57:56;10.80;99.90
14016;DHT22;7083;48.854;9.158;2023-04-25T16:00:23;11.10;99.90
14016;DHT22;7083;48.854;9.158;2023-04-25T16:02:49;11.20;99.90